Harlem, Montana
Current Conditions -  °F | °C
As of 3:35 AM on Saturday 01 Nov 2014 (Local Time) from KHVR Reporting Station
Haze Haze  
Wind Chill: 29°   Ceiling: Unl
Heat Index: 29°   Visibility: 3mi
Dew Point: 27°   Wind: 0mph
Humidity: 92%   Direction: NA
Pressure: 29.72"   Gusts: NA
Location:  48.53°N, 108.78°W
Report Text: KHVR 010935Z AUTO 00000KT 3SM BR CLR M02/M03 A2972 RMK AO2 T10171028 $
Loading
Personal Weather Stations






























Interactive Weather Map
Tropical Storm Tracking
New forecast layout! Learn more

10-Day Weather Forecast

Advertisements
Track Severe Weather on mobile